Time;durP1;ratioP1;P1;durP2;ratioP2;P2;SDS_P1;SDS_P2;PMS_P1;PMS_P2;Temp;Humidity;BMP_temperature;BMP_pressure;BME280_temperature;BME280_humidity;BME280_pressure;Samples;Min_cycle;Max_cycle;Signal;HPM_P1;HPM_P2
2022/12/16 00:00:16;;;;;;;33.70;18.33;;;-0.80;84.30;;;;;;5092929;28;20069;-77
2022/12/16 00:02:42;;;;;;;39.07;19.23;;;-0.70;84.40;;;;;;5092979;28;20400;-77
2022/12/16 00:05:08;;;;;;;37.23;19.77;;;-0.70;84.60;;;;;;5094372;28;20278;-77
2022/12/16 00:07:34;;;;;;;34.37;18.63;;;-0.60;84.70;;;;;;5093017;28;20032;-78
2022/12/16 00:09:59;;;;;;;34.90;19.17;;;-0.60;84.70;;;;;;5093045;28;20034;-77
2022/12/16 00:12:25;;;;;;;36.40;19.93;;;-0.50;85.50;;;;;;5075940;28;20028;-76
2022/12/16 00:14:51;;;;;;;38.97;19.50;;;-0.50;84.80;;;;;;5076025;28;20054;-77
2022/12/16 00:17:16;;;;;;;35.03;18.77;;;-0.50;84.80;;;;;;5075835;28;20028;-78
2022/12/16 00:19:42;;;;;;;34.67;18.80;;;-0.50;84.80;;;;;;5093066;28;20052;-84
2022/12/16 00:22:08;;;;;;;37.47;19.83;;;-0.40;84.80;;;;;;5094498;28;20545;-84
2022/12/16 00:24:33;;;;;;;36.97;19.13;;;-0.40;84.80;;;;;;5076217;28;20117;-83
2022/12/16 00:26:59;;;;;;;34.87;19.23;;;-0.30;85.00;;;;;;5093189;28;20031;-85
2022/12/16 00:29:24;;;;;;;41.57;19.57;;;-0.30;84.90;;;;;;5092975;28;20410;-84
2022/12/16 00:31:51;;;;;;;35.53;18.77;;;-0.20;84.80;;;;;;5093082;28;20038;-84
2022/12/16 00:34:16;;;;;;;36.53;19.07;;;-0.20;85.30;;;;;;5093293;28;20073;-84
2022/12/16 00:36:43;;;;;;;37.80;19.43;;;-0.20;84.70;;;;;;5093143;28;20483;-85
2022/12/16 00:39:09;;;;;;;36.27;18.83;;;-0.10;84.70;;;;;;5094742;28;20024;-84
2022/12/16 00:41:35;;;;;;;32.43;18.30;;;-0.10;84.70;;;;;;5093779;28;20043;-84
2022/12/16 00:44:01;;;;;;;38.97;20.30;;;-0.10;84.70;;;;;;5095308;28;20019;-84
2022/12/16 00:46:27;;;;;;;35.73;19.17;;;-0.10;84.60;;;;;;5077078;28;20480;-84
2022/12/16 00:48:52;;;;;;;34.10;17.67;;;0.00;84.60;;;;;;5093431;28;20101;-85
2022/12/16 00:51:18;;;;;;;36.80;19.13;;;0.00;84.50;;;;;;5076844;28;20028;-84
2022/12/16 00:53:43;;;;;;;39.13;20.00;;;0.00;85.10;;;;;;5076564;28;20044;-84
2022/12/16 00:56:13;;;;;;;41.43;18.90;;;0.00;84.40;;;;;;5093529;28;20032;-84
2022/12/16 00:58:38;;;;;;;36.00;20.60;;;0.00;84.30;;;;;;5094358;28;20024;-84
2022/12/16 01:01:04;;;;;;;35.07;19.60;;;0.00;84.30;;;;;;5075312;28;20499;-85
2022/12/16 01:03:30;;;;;;;34.03;18.93;;;0.10;84.30;;;;;;5091887;28;20488;-85
2022/12/16 01:05:56;;;;;;;34.93;18.90;;;0.10;84.30;;;;;;5091890;28;20525;-85
2022/12/16 01:08:21;;;;;;;37.60;19.77;;;0.10;84.30;;;;;;5092554;28;20032;-85
2022/12/16 01:10:52;;;;;;;36.70;19.77;;;0.10;84.20;;;;;;5075226;28;20070;-85
2022/12/16 01:13:19;;;;;;;34.57;19.13;;;0.10;84.10;;;;;;5094355;28;20032;-85
2022/12/16 01:15:44;;;;;;;32.40;18.37;;;0.10;84.10;;;;;;5094293;28;20020;-85
2022/12/16 01:18:10;;;;;;;32.57;18.77;;;0.10;84.20;;;;;;5098867;28;20054;-84
2022/12/16 01:20:37;;;;;;;34.33;19.90;;;0.10;84.30;;;;;;5097828;28;20028;-84
2022/12/16 01:23:03;;;;;;;38.93;20.83;;;0.10;84.30;;;;;;5092824;28;20043;-85
2022/12/16 01:25:28;;;;;;;40.63;21.17;;;0.10;84.30;;;;;;5075663;28;20020;-84
2022/12/16 01:27:54;;;;;;;34.47;20.60;;;0.10;84.30;;;;;;5093835;28;20020;-84
2022/12/16 01:30:19;;;;;;;33.90;19.83;;;0.20;84.30;;;;;;5094239;28;20035;-83
2022/12/16 01:32:45;;;;;;;37.50;21.97;;;0.20;84.10;;;;;;5093092;28;20032;-84
2022/12/16 01:35:12;;;;;;;35.83;19.90;;;0.20;84.00;;;;;;5093024;28;20283;-78
2022/12/16 01:37:38;;;;;;;43.47;21.17;;;0.20;84.00;;;;;;5092904;28;20024;-77
2022/12/16 01:40:04;;;;;;;38.80;21.03;;;0.10;83.90;;;;;;5091765;28;20537;-77
2022/12/16 01:42:32;;;;;;;33.87;19.53;;;0.20;83.90;;;;;;5075010;28;20016;-77
2022/12/16 01:45:23;;;;;;;37.23;21.13;;;0.20;83.90;;;;;;5092980;28;20048;-77
2022/12/16 01:47:53;;;;;;;36.97;19.60;;;0.20;83.90;;;;;;5092919;28;20024;-77
2022/12/16 01:50:19;;;;;;;35.57;19.17;;;0.10;83.90;;;;;;5098354;28;20020;-84
2022/12/16 01:52:52;;;;;;;38.03;20.60;;;0.20;83.90;;;;;;5097201;28;20016;-84
2022/12/16 01:55:27;;;;;;;42.00;21.67;;;0.20;84.00;;;;;;5092642;28;20480;-84
2022/12/16 01:58:08;;;;;;;38.63;21.67;;;0.20;83.90;;;;;;5093183;28;20099;-84
2022/12/16 02:00:35;;;;;;;41.77;22.17;;;0.20;83.90;;;;;;5093286;28;20031;-84
2022/12/16 02:03:02;;;;;;;36.13;19.10;;;0.20;83.90;;;;;;5096026;28;20506;-84
2022/12/16 02:05:28;;;;;;;38.10;21.80;;;0.20;84.00;;;;;;5078798;28;20085;-84
2022/12/16 02:07:57;;;;;;;35.07;19.47;;;0.20;84.00;;;;;;5078549;28;20031;-84
2022/12/16 02:10:37;;;;;;;37.10;21.13;;;0.20;84.00;;;;;;5095624;28;20024;-84
2022/12/16 02:13:09;;;;;;;42.77;21.53;;;0.20;84.00;;;;;;5096898;28;20027;-85
2022/12/16 02:15:52;;;;;;;38.50;21.30;;;0.30;84.10;;;;;;5097032;28;20059;-85
2022/12/16 02:18:25;;;;;;;39.17;19.60;;;0.30;84.10;;;;;;5095437;28;20024;-85
2022/12/16 02:21:15;;;;;;;35.20;20.40;;;0.30;84.10;;;;;;5097455;28;20095;-84
2022/12/16 02:23:56;;;;;;;36.30;20.43;;;0.30;84.20;;;;;;5096194;28;20032;-84
2022/12/16 02:26:54;;;;;;;40.33;21.03;;;0.30;84.10;;;;;;5095856;28;20548;-84
2022/12/16 02:29:58;;;;;;;35.97;20.17;;;0.40;84.10;;;;;;5049631;28;20070;-84
2022/12/16 02:32:48;;;;;;;43.17;21.13;;;0.30;84.00;;;;;;5095943;28;20388;-84
2022/12/16 02:35:36;;;;;;;39.20;21.43;;;0.30;84.00;;;;;;5096239;28;20111;-85
2022/12/16 02:38:26;;;;;;;35.33;19.30;;;0.30;84.00;;;;;;5096571;28;20472;-85
2022/12/16 02:41:00;;;;;;;36.80;19.83;;;0.30;84.20;;;;;;5098242;28;20043;-85
2022/12/16 02:43:41;;;;;;;39.43;21.47;;;0.30;84.20;;;;;;5098538;28;20024;-85
2022/12/16 02:46:08;;;;;;;33.93;21.27;;;0.30;84.30;;;;;;5097085;28;20028;-84
2022/12/16 02:48:34;;;;;;;37.50;21.03;;;0.30;84.30;;;;;;5096108;28;20039;-84
2022/12/16 02:50:59;;;;;;;37.73;21.33;;;0.30;84.30;;;;;;5096117;28;20028;-85
2022/12/16 02:53:26;;;;;;;40.20;21.90;;;0.40;84.30;;;;;;5079791;28;20113;-85
2022/12/16 02:56:22;;;;;;;40.00;21.93;;;0.40;84.30;;;;;;5097647;28;20028;-86
2022/12/16 02:59:14;;;;;;;40.73;21.10;;;0.40;84.40;;;;;;5095126;28;20150;-77
2022/12/16 03:02:14;;;;;;;32.60;18.97;;;0.40;84.50;;;;;;5091497;28;20032;-77
2022/12/16 03:04:56;;;;;;;41.27;21.03;;;0.40;84.50;;;;;;5093584;28;20090;-77
2022/12/16 03:07:25;;;;;;;41.67;21.70;;;0.40;84.40;;;;;;5094289;28;20413;-77
2022/12/16 03:09:52;;;;;;;40.93;21.67;;;0.50;84.30;;;;;;5095833;28;20111;-85
2022/12/16 03:12:20;;;;;;;36.47;20.80;;;0.50;84.30;;;;;;5077298;28;20404;-85
2022/12/16 03:14:50;;;;;;;38.50;20.37;;;0.50;84.90;;;;;;5078882;28;20032;-85
2022/12/16 03:17:18;;;;;;;40.20;22.00;;;0.50;84.40;;;;;;5095493;28;20036;-85
2022/12/16 03:19:51;;;;;;;36.30;21.30;;;0.50;84.40;;;;;;5096494;28;20027;-85
2022/12/16 03:22:26;;;;;;;39.33;20.97;;;0.50;84.50;;;;;;5095704;28;20020;-85
2022/12/16 03:24:52;;;;;;;40.90;22.70;;;0.50;84.40;;;;;;5096235;28;20020;-85
2022/12/16 03:27:40;;;;;;;49.17;22.07;;;0.50;84.30;;;;;;5096003;28;20028;-85
2022/12/16 03:30:12;;;;;;;41.07;21.77;;;0.50;84.30;;;;;;5095294;28;20031;-85
2022/12/16 03:32:46;;;;;;;40.50;22.63;;;0.50;84.30;;;;;;5096999;28;20107;-85
2022/12/16 03:35:19;;;;;;;40.43;21.83;;;0.50;84.40;;;;;;5095838;28;20480;-85
2022/12/16 03:37:48;;;;;;;30.88;17.00;;;0.50;84.40;;;;;;5095105;28;20032;-85
2022/12/16 03:40:14;;;;;;;38.63;23.03;;;0.50;84.50;;;;;;5095009;28;20383;-85
2022/12/16 03:42:42;;;;;;;41.77;21.77;;;0.40;84.30;;;;;;5094963;28;20016;-85
2022/12/16 03:45:12;;;;;;;39.93;22.87;;;0.50;84.40;;;;;;5094743;28;20012;-85
2022/12/16 03:47:38;;;;;;;44.20;23.83;;;0.50;84.50;;;;;;5096332;28;20042;-85
2022/12/16 03:50:05;;;;;;;36.07;21.20;;;0.50;84.50;;;;;;5095385;28;20086;-84
2022/12/16 03:52:31;;;;;;;44.13;24.37;;;0.50;84.60;;;;;;5096003;28;20070;-85
2022/12/16 03:54:57;;;;;;;40.73;22.33;;;0.50;84.60;;;;;;5095004;28;20070;-84
2022/12/16 03:57:23;;;;;;;43.20;23.50;;;0.40;84.50;;;;;;5095648;28;20036;-84
2022/12/16 03:59:48;;;;;;;44.40;23.27;;;0.50;84.60;;;;;;5097067;28;20020;-84
2022/12/16 04:02:14;;;;;;;40.07;22.03;;;0.40;84.60;;;;;;5077411;28;20051;-85
2022/12/16 04:04:40;;;;;;;38.77;21.83;;;0.40;84.70;;;;;;5077028;28;20024;-84
2022/12/16 04:07:20;;;;;;;43.23;21.60;;;0.50;84.70;;;;;;5094040;28;20117;-85
2022/12/16 04:09:47;;;;;;;36.87;20.33;;;0.50;84.80;;;;;;5094092;28;20028;-85
2022/12/16 04:26:02;;;;;;;41.70;21.57;;;0.70;85.30;;;;;;5097392;28;20031;-85
2022/12/16 04:28:28;;;;;;;38.43;21.83;;;0.60;85.30;;;;;;5094450;28;20031;-85
2022/12/16 04:30:54;;;;;;;40.70;21.43;;;0.50;85.30;;;;;;5077998;28;20024;-85
